createdAt,value
2022-09-15T00:14:46.618Z,76.7
2022-09-15T00:29:56.631Z,77.2
2022-09-15T00:45:05.883Z,76.6
2022-09-15T01:00:15.470Z,77
2022-09-15T01:15:24.805Z,76.9
2022-09-15T01:30:34.515Z,77.2
2022-09-15T01:45:46.145Z,77.4
2022-09-15T02:00:55.951Z,77.6
2022-09-15T02:16:06.086Z,77.6
2022-09-15T02:31:16.235Z,77.6
2022-09-15T02:46:25.397Z,77.7
2022-09-15T03:01:35.897Z,77.7
2022-09-15T03:16:46.540Z,77.8
2022-09-15T03:31:56.389Z,77.9
2022-09-15T03:47:05.953Z,77.9
2022-09-15T04:02:16.267Z,78.3
2022-09-15T04:17:25.688Z,78
2022-09-15T04:32:34.882Z,77.7
2022-09-15T04:47:45.219Z,77.7
2022-09-15T05:02:54.883Z,77.9
2022-09-15T05:18:04.164Z,77.9
2022-09-15T05:33:13.774Z,77.9
2022-09-15T05:48:23.015Z,77.9
2022-09-15T06:03:33.207Z,77.7
2022-09-15T06:18:46.677Z,77.5
2022-09-15T06:33:56.410Z,77.4
2022-09-15T06:49:05.999Z,77.4
2022-09-15T07:04:16.030Z,77.3
2022-09-15T07:19:25.553Z,77.2
2022-09-15T07:34:34.886Z,77.3
2022-09-15T07:49:44.227Z,77.2
2022-09-15T08:04:53.672Z,77
2022-09-15T08:20:03.860Z,76.7
2022-09-15T08:35:13.642Z,76.6
2022-09-15T08:50:23.000Z,76.6
2022-09-15T09:05:32.636Z,76.3
2022-09-15T09:20:46.379Z,75
2022-09-15T09:35:56.261Z,74.9
2022-09-15T09:51:05.785Z,74.2
2022-09-15T10:06:15.205Z,74
2022-09-15T10:21:24.971Z,73.7
2022-09-15T10:36:34.385Z,73.7
2022-09-15T10:51:46.576Z,72.8
2022-09-15T11:06:56.637Z,72.6
2022-09-15T11:22:06.376Z,71.5
2022-09-15T11:37:15.942Z,71.4
2022-09-15T11:52:24.944Z,71.9
2022-09-15T12:07:34.393Z,72
2022-09-15T12:22:45.831Z,72.2
2022-09-15T12:37:55.474Z,72
2022-09-15T12:53:05.255Z,69.9
2022-09-15T13:08:14.669Z,70.5
2022-09-15T13:23:23.854Z,70.6
2022-09-15T13:38:33.801Z,69.4
2022-09-15T13:53:45.985Z,69.2
2022-09-15T14:08:55.296Z,68.7
2022-09-15T14:24:04.973Z,67.7
2022-09-15T14:39:15.050Z,66.6
2022-09-15T14:54:24.226Z,67.9
2022-09-15T15:09:33.973Z,68.1
2022-09-15T15:24:46.174Z,68.3
2022-09-15T15:39:56.330Z,68.7
2022-09-15T15:55:05.773Z,68.4
2022-09-15T16:10:15.206Z,68.4
2022-09-15T16:25:24.337Z,68.6
2022-09-15T16:40:34.016Z,68.9
2022-09-15T16:55:44.317Z,69.2
2022-09-15T17:10:53.433Z,69.8
2022-09-15T17:26:02.449Z,69.6
2022-09-15T17:41:11.366Z,69.6
2022-09-15T17:56:20.716Z,69.6
2022-09-15T18:11:30.334Z,69.9
2022-09-15T18:26:39.570Z,70.4
2022-09-15T18:56:59.081Z,71.4
2022-09-15T19:12:08.442Z,71.1
2022-09-15T19:27:17.975Z,71
2022-09-15T19:42:27.542Z,71.1
2022-09-15T19:57:36.847Z,71.2
2022-09-15T20:12:46.102Z,71.4
2022-09-15T20:27:55.446Z,71.8
2022-09-15T20:43:04.553Z,72
2022-09-15T20:58:13.908Z,72
2022-09-15T21:13:22.685Z,72.3
2022-09-15T21:28:32.350Z,72.5
2022-09-15T21:43:41.820Z,72.9
2022-09-15T21:58:50.975Z,73.1
2022-09-15T22:14:00.242Z,73.5
2022-09-15T22:29:09.282Z,73.7
2022-09-15T22:44:18.764Z,73.9
2022-09-15T22:59:28.660Z,74.1
2022-09-15T23:14:37.828Z,74.3
2022-09-15T23:29:47.216Z,74.5
2022-09-15T23:44:56.629Z,74.7
